Time;durP1;ratioP1;P1;durP2;ratioP2;P2;SDS_P1;SDS_P2;PMS_P1;PMS_P2;Temp;Humidity;BMP_temperature;BMP_pressure;BME280_temperature;BME280_humidity;BME280_pressure;Samples;Min_cycle;Max_cycle;Signal;HPM_P1;HPM_P2
2022/03/14 00:00:58;;;;;;;7.25;4.97;;;9.70;99.90;;;;;;5022659;28;21187;-79
2022/03/14 00:03:25;;;;;;;8.38;5.50;;;9.80;99.90;;;;;;5002079;28;20022;-79
2022/03/14 00:05:54;;;;;;;9.05;5.75;;;9.60;99.90;;;;;;5015140;28;20088;-80
2022/03/14 00:08:25;;;;;;;7.95;5.38;;;9.60;99.90;;;;;;4996536;28;20222;-80
2022/03/14 00:10:53;;;;;;;7.60;4.70;;;9.70;99.90;;;;;;5021111;28;20030;-80
2022/03/14 00:13:19;;;;;;;5.90;4.22;;;9.60;99.90;;;;;;4999064;28;20084;-80
2022/03/14 00:15:46;;;;;;;6.43;4.25;;;9.60;99.90;;;;;;5006120;28;20053;-77
2022/03/14 00:18:15;;;;;;;6.50;4.20;;;9.50;99.90;;;;;;5004840;28;20018;-80
2022/03/14 00:20:44;;;;;;;5.65;3.80;;;9.50;99.90;;;;;;4984433;28;20026;-78
2022/03/14 00:23:12;;;;;;;4.78;3.40;;;9.50;99.90;;;;;;5018691;28;20034;-80
2022/03/14 00:25:39;;;;;;;5.63;3.33;;;9.40;99.90;;;;;;5004851;28;20026;-80
2022/03/14 00:28:06;;;;;;;4.30;3.10;;;9.40;99.90;;;;;;5004112;28;20060;-80
2022/03/14 00:30:34;;;;;;;5.35;3.17;;;9.40;99.90;;;;;;5014318;28;20106;-80
2022/03/14 00:33:02;;;;;;;5.15;3.10;;;9.30;99.90;;;;;;5007547;28;20053;-80
2022/03/14 00:35:28;;;;;;;4.43;2.80;;;9.30;99.90;;;;;;4996839;28;20027;-79
2022/03/14 00:37:54;;;;;;;4.80;2.67;;;9.30;99.90;;;;;;5002216;28;20022;-80
2022/03/14 00:40:21;;;;;;;3.58;2.55;;;9.30;99.90;;;;;;5022843;28;20052;-80
2022/03/14 00:42:50;;;;;;;4.03;2.30;;;9.20;99.90;;;;;;5017583;28;20414;-80
2022/03/14 00:45:17;;;;;;;3.60;2.42;;;9.20;99.90;;;;;;5007585;28;20030;-80
2022/03/14 00:47:43;;;;;;;4.63;2.70;;;9.20;99.90;;;;;;5006153;28;20026;-80
2022/03/14 00:50:10;;;;;;;3.55;2.65;;;9.20;99.90;;;;;;5003556;28;20044;-80
2022/03/14 00:52:36;;;;;;;3.13;2.22;;;9.30;99.90;;;;;;4981656;28;20041;-80
2022/03/14 00:55:02;;;;;;;3.30;2.03;;;9.30;99.90;;;;;;4994537;28;20030;-80
2022/03/14 00:57:28;;;;;;;5.05;2.45;;;9.30;99.90;;;;;;4996933;28;20045;-80
2022/03/14 00:59:54;;;;;;;4.28;2.55;;;9.20;99.90;;;;;;4997843;28;20045;-79
2022/03/14 01:02:20;;;;;;;3.80;2.17;;;9.10;99.90;;;;;;5017528;28;20026;-80
2022/03/14 01:04:46;;;;;;;3.55;2.40;;;9.10;99.90;;;;;;4979338;28;20026;-80
2022/03/14 01:07:12;;;;;;;3.40;2.40;;;9.00;99.90;;;;;;4997675;28;20089;-80
2022/03/14 01:09:38;;;;;;;4.25;2.42;;;9.00;99.90;;;;;;5001953;28;20100;-79
2022/03/14 01:12:05;;;;;;;4.18;2.20;;;9.00;99.90;;;;;;4998016;28;20034;-80
2022/03/14 01:14:31;;;;;;;4.47;2.78;;;9.00;99.90;;;;;;4997223;28;20079;-80
2022/03/14 01:17:00;;;;;;;4.25;2.63;;;8.90;99.90;;;;;;4994774;28;20033;-79
2022/03/14 01:19:27;;;;;;;4.30;2.83;;;8.90;99.90;;;;;;4993092;28;20164;-79
2022/03/14 01:21:53;;;;;;;4.45;2.55;;;8.90;99.90;;;;;;4995617;28;20027;-80
2022/03/14 01:24:19;;;;;;;4.13;2.50;;;8.90;99.90;;;;;;4993989;28;20038;-80
2022/03/14 01:26:45;;;;;;;5.22;2.75;;;8.90;99.90;;;;;;5009661;28;20081;-80
2022/03/14 01:29:12;;;;;;;7.03;3.45;;;10.20;99.90;;;;;;5001588;28;20067;-80
2022/03/14 01:31:40;;;;;;;4.03;2.60;;;9.00;99.90;;;;;;4994069;28;20034;-79
2022/03/14 01:34:08;;;;;;;6.05;3.53;;;9.00;99.90;;;;;;4993787;28;20026;-80
2022/03/14 01:36:36;;;;;;;4.82;2.85;;;9.10;99.90;;;;;;4995866;28;20117;-80
2022/03/14 01:39:04;;;;;;;5.28;3.33;;;9.30;99.90;;;;;;5000015;28;20064;-80
2022/03/14 01:41:31;;;;;;;4.60;3.35;;;9.40;99.90;;;;;;4999840;28;20042;-80
2022/03/14 01:43:59;;;;;;;5.10;3.47;;;9.30;99.90;;;;;;4981626;28;20124;-80
2022/03/14 01:46:27;;;;;;;6.45;3.95;;;9.30;99.90;;;;;;5015134;28;20061;-79
2022/03/14 01:48:53;;;;;;;4.65;3.20;;;9.20;99.90;;;;;;4993822;28;20026;-79
2022/03/14 01:51:22;;;;;;;4.65;3.00;;;9.20;99.90;;;;;;5017003;28;20033;-80
2022/03/14 01:53:48;;;;;;;3.92;2.90;;;9.30;99.90;;;;;;4996736;28;20037;-80
2022/03/14 01:56:15;;;;;;;4.40;2.50;;;9.30;99.90;;;;;;4998573;28;20409;-80
2022/03/14 01:58:42;;;;;;;3.88;2.78;;;9.30;99.90;;;;;;4982928;28;20030;-79
2022/03/14 02:01:07;;;;;;;6.13;2.83;;;9.20;99.90;;;;;;5000103;28;20033;-79
2022/03/14 02:03:33;;;;;;;4.20;2.70;;;9.20;99.90;;;;;;5022400;28;20033;-79
2022/03/14 02:06:00;;;;;;;3.65;2.60;;;9.20;99.90;;;;;;5001877;28;20503;-79
2022/03/14 02:08:26;;;;;;;3.78;2.47;;;9.30;99.90;;;;;;5004228;28;20049;-80
2022/03/14 02:10:54;;;;;;;5.18;2.85;;;9.20;99.90;;;;;;5000858;28;20037;-80
2022/03/14 02:13:20;;;;;;;3.83;2.45;;;9.10;99.90;;;;;;4994194;28;20033;-80
2022/03/14 02:15:46;;;;;;;4.85;2.45;;;9.10;99.90;;;;;;5005870;28;20025;-80
2022/03/14 02:18:12;;;;;;;4.07;2.40;;;9.10;99.90;;;;;;5029682;28;20104;-80
2022/03/14 02:20:39;;;;;;;9.18;4.50;;;8.90;99.90;;;;;;5015947;28;20020;-80
2022/03/14 02:23:05;;;;;;;2.85;2.10;;;8.80;99.90;;;;;;5031449;28;20022;-81
2022/03/14 02:25:35;;;;;;;6.03;3.17;;;8.80;99.90;;;;;;5007023;28;20242;-80
2022/03/14 02:28:02;;;;;;;4.03;2.10;;;8.80;99.90;;;;;;5008040;28;20486;-79
2022/03/14 02:30:28;;;;;;;4.47;2.50;;;8.80;99.90;;;;;;4996582;28;20030;-80
2022/03/14 02:32:58;;;;;;;4.97;2.80;;;8.80;99.90;;;;;;5010711;28;20053;-79
2022/03/14 02:35:24;;;;;;;5.85;1.85;;;9.70;99.90;;;;;;5001785;28;20026;-79
2022/03/14 02:37:50;;;;;;;4.20;2.20;;;8.80;99.90;;;;;;4999348;28;20040;-79
2022/03/14 02:40:16;;;;;;;3.28;2.00;;;8.80;99.90;;;;;;5020866;28;20021;-79
2022/03/14 02:42:42;;;;;;;3.30;2.30;;;8.80;99.90;;;;;;5003511;28;20049;-79
2022/03/14 02:45:09;;;;;;;3.58;1.83;;;8.80;99.90;;;;;;4997361;28;20048;-79
2022/03/14 02:47:36;;;;;;;5.25;2.17;;;8.80;99.90;;;;;;4994591;28;20045;-80
2022/03/14 02:50:02;;;;;;;5.78;2.38;;;8.70;99.90;;;;;;5001868;28;20035;-79
2022/03/14 02:52:28;;;;;;;6.15;2.67;;;8.70;99.90;;;;;;5015214;28;20081;-78
2022/03/14 02:54:54;;;;;;;3.03;1.92;;;8.70;99.90;;;;;;5010726;28;20061;-79
2022/03/14 02:57:20;;;;;;;4.63;2.38;;;8.70;99.90;;;;;;5004811;28;20026;-80
2022/03/14 02:59:49;;;;;;;3.90;2.00;;;8.80;99.90;;;;;;4987338;28;20459;-79
2022/03/14 03:02:16;;;;;;;3.78;1.83;;;8.80;99.90;;;;;;5012621;28;20032;-78
2022/03/14 03:04:42;;;;;;;3.33;1.60;;;8.80;99.90;;;;;;5001676;28;20030;-79
2022/03/14 03:07:08;;;;;;;3.08;1.80;;;8.80;99.90;;;;;;5022853;28;20036;-79
2022/03/14 03:09:38;;;;;;;2.38;1.42;;;8.70;99.90;;;;;;5020144;28;20029;-79
2022/03/14 03:12:08;;;;;;;4.13;1.67;;;8.80;99.90;;;;;;5006260;28;20236;-80
2022/03/14 03:14:35;;;;;;;3.75;1.80;;;8.80;99.90;;;;;;5004436;28;20026;-80
2022/03/14 03:17:01;;;;;;;2.40;1.50;;;8.80;99.90;;;;;;4985731;28;20038;-79
2022/03/14 03:19:27;;;;;;;2.13;1.33;;;8.70;99.90;;;;;;5002822;28;20029;-79
2022/03/14 03:21:53;;;;;;;3.45;1.70;;;8.60;99.90;;;;;;5000548;28;20021;-79
2022/03/14 03:24:19;;;;;;;3.60;1.25;;;8.60;99.90;;;;;;4998938;28;20045;-80
2022/03/14 03:26:46;;;;;;;3.28;1.40;;;8.60;99.90;;;;;;5000569;28;20053;-78
2022/03/14 03:29:12;;;;;;;3.70;1.50;;;8.70;99.90;;;;;;5002371;28;20482;-79
2022/03/14 03:31:38;;;;;;;3.42;1.40;;;8.70;99.90;;;;;;5010621;28;20037;-79
2022/03/14 03:34:04;;;;;;;3.67;1.42;;;8.70;99.90;;;;;;5012407;28;20033;-80
2022/03/14 03:36:31;;;;;;;2.85;1.58;;;8.60;99.90;;;;;;4985199;28;20486;-80
2022/03/14 03:38:58;;;;;;;2.80;1.15;;;8.50;99.90;;;;;;5005665;28;20018;-79
2022/03/14 03:41:25;;;;;;;8.63;3.35;;;8.70;99.90;;;;;;4992989;28;20486;-79
2022/03/14 03:43:51;;;;;;;3.90;1.42;;;8.80;99.90;;;;;;4999365;28;20036;-79
2022/03/14 03:46:17;;;;;;;4.18;1.38;;;8.70;99.90;;;;;;5007911;28;20520;-78
2022/03/14 03:48:43;;;;;;;7.97;2.38;;;8.70;99.90;;;;;;5005253;28;20029;-78
2022/03/14 03:51:09;;;;;;;2.47;1.30;;;8.70;99.90;;;;;;5003677;28;20025;-78
2022/03/14 03:53:35;;;;;;;5.03;1.98;;;8.60;99.90;;;;;;4993493;28;20041;-78
2022/03/14 03:56:01;;;;;;;8.10;2.40;;;8.40;99.90;;;;;;4999509;28;20030;-79
2022/03/14 03:58:27;;;;;;;5.40;1.45;;;8.40;99.90;;;;;;5000585;28;20117;-79
2022/03/14 04:00:54;;;;;;;5.45;2.03;;;8.40;99.90;;;;;;5003329;28;20029;-80
2022/03/14 04:03:21;;;;;;;5.20;1.52;;;8.60;99.90;;;;;;5005042;28;20045;-78
2022/03/14 04:05:48;;;;;;;9.13;1.88;;;8.60;99.90;;;;;;4987366;28;20061;-80
2022/03/14 04:08:14;;;;;;;4.30;1.55;;;8.50;99.90;;;;;;5004533;28;20038;-79
2022/03/14 04:10:43;;;;;;;7.28;1.75;;;8.40;99.90;;;;;;5021213;28;20038;-79
2022/03/14 04:13:10;;;;;;;4.95;1.40;;;8.40;99.90;;;;;;5006445;28;20072;-80
2022/03/14 04:15:54;;;;;;;4.53;1.65;;;8.40;99.90;;;;;;4988448;28;20044;-80
2022/03/14 04:18:22;;;;;;;6.53;1.50;;;8.40;99.90;;;;;;5001704;28;20089;-79
2022/03/14 04:20:49;;;;;;;6.05;1.85;;;8.50;99.90;;;;;;4996639;28;20022;-79
2022/03/14 04:23:16;;;;;;;7.30;1.70;;;9.20;99.90;;;;;;5004125;28;20034;-79
2022/03/14 04:25:43;;;;;;;5.07;2.00;;;;;;;;;;5012413;28;20336;-79
2022/03/14 04:28:10;;;;;;;4.43;1.42;;;8.30;99.90;;;;;;5002195;28;20033;-79
2022/03/14 04:30:39;;;;;;;7.05;1.52;;;8.30;99.90;;;;;;5004217;28;20112;-79
2022/03/14 04:33:07;;;;;;;5.65;1.70;;;8.40;99.90;;;;;;5014878;28;20038;-79
2022/03/14 04:35:33;;;;;;;6.13;1.48;;;;;;;;;;5002002;28;20038;-79
2022/03/14 04:37:59;;;;;;;6.85;1.75;;;8.30;99.90;;;;;;5004911;28;20033;-79
2022/03/14 04:40:25;;;;;;;6.15;1.58;;;8.30;99.90;;;;;;5008241;28;20030;-79
2022/03/14 04:42:51;;;;;;;9.90;2.28;;;8.50;99.90;;;;;;4993521;28;20033;-79
2022/03/14 04:45:17;;;;;;;5.30;1.40;;;8.50;99.90;;;;;;5015566;28;20065;-79
2022/03/14 04:47:44;;;;;;;3.40;1.30;;;8.50;99.90;;;;;;5005630;28;20022;-79
2022/03/14 04:50:10;;;;;;;4.85;1.63;;;8.50;99.90;;;;;;5020397;28;20022;-79
2022/03/14 04:52:36;;;;;;;8.00;1.60;;;8.50;99.90;;;;;;5007547;28;20018;-79
2022/03/14 04:55:03;;;;;;;7.35;2.00;;;8.50;99.90;;;;;;5020953;28;20033;-79
2022/03/14 04:57:29;;;;;;;6.60;1.83;;;8.60;99.90;;;;;;5005383;28;20057;-79
2022/03/14 04:59:55;;;;;;;6.88;1.70;;;8.50;99.90;;;;;;5007069;28;20042;-79
2022/03/14 05:02:25;;;;;;;6.82;1.67;;;9.80;99.90;;;;;;5002701;28;20030;-79
2022/03/14 05:04:52;;;;;;;6.25;1.40;;;8.50;99.90;;;;;;5019537;28;20266;-79
2022/03/14 05:07:19;;;;;;;5.80;1.40;;;8.50;99.90;;;;;;4999259;28;20037;-79
2022/03/14 05:09:45;;;;;;;7.05;1.65;;;8.40;99.90;;;;;;4983139;28;20053;-79
2022/03/14 05:12:14;;;;;;;8.35;1.70;;;8.40;99.90;;;;;;5012488;28;20030;-79
2022/03/14 05:14:40;;;;;;;8.73;2.10;;;8.50;99.90;;;;;;4991149;28;20030;-79
2022/03/14 05:17:06;;;;;;;3.97;2.20;;;8.40;99.90;;;;;;5011876;28;20025;-79
2022/03/14 05:19:32;;;;;;;6.97;1.45;;;8.40;99.90;;;;;;5001739;28;20026;-79
2022/03/14 05:22:03;;;;;;;4.60;1.50;;;8.30;99.90;;;;;;4997585;28;20065;-79
2022/03/14 05:24:30;;;;;;;5.15;1.52;;;8.40;99.90;;;;;;4999519;28;20025;-78
2022/03/14 05:26:57;;;;;;;5.65;1.60;;;8.40;99.90;;;;;;4992839;28;20036;-80
2022/03/14 05:29:23;;;;;;;8.77;2.03;;;8.40;99.90;;;;;;5019575;28;20034;-79
2022/03/14 05:31:50;;;;;;;7.93;2.22;;;8.30;99.90;;;;;;5001854;28;20124;-79
2022/03/14 05:34:16;;;;;;;5.00;1.52;;;8.30;99.90;;;;;;5002472;28;20068;-79
2022/03/14 05:36:45;;;;;;;7.57;1.70;;;8.30;99.90;;;;;;5006403;28;20057;-80
2022/03/14 05:39:14;;;;;;;6.50;1.60;;;8.30;99.90;;;;;;5024624;23;20045;-88
2022/03/14 05:41:46;;;;;;;7.15;1.60;;;8.30;99.90;;;;;;5031498;28;20026;-87
2022/03/14 05:44:14;;;;;;;4.72;1.42;;;8.20;99.90;;;;;;5026016;28;20033;-86
2022/03/14 05:46:43;;;;;;;8.30;1.80;;;8.20;99.90;;;;;;5021200;28;20073;-87
2022/03/14 05:49:30;;;;;;;7.88;1.90;;;8.20;99.90;;;;;;5019018;28;20482;-84
2022/03/14 05:52:00;;;;;;;5.22;1.40;;;8.30;99.90;;;;;;5012461;28;20048;-85
2022/03/14 05:54:38;;;;;;;8.93;1.95;;;8.30;99.90;;;;;;5015775;28;20041;-86
2022/03/14 05:57:08;;;;;;;7.47;1.80;;;8.30;99.90;;;;;;4984603;28;20026;-87
2022/03/14 05:59:37;;;;;;;7.20;1.73;;;8.30;99.90;;;;;;5030479;28;20141;-88
2022/03/14 06:02:05;;;;;;;9.20;2.28;;;8.40;99.90;;;;;;5011101;28;20438;-86
2022/03/14 06:04:33;;;;;;;6.38;2.22;;;8.30;99.90;;;;;;5013199;28;20151;-88
2022/03/14 06:07:25;;;;;;;7.55;1.77;;;8.20;99.90;;;;;;5009397;28;20022;-89
2022/03/14 06:14:24;;;;;;;9.02;2.10;;;8.20;99.90;;;;;;4976947;28;20042;-87
2022/03/14 06:31:32;;;;;;;6.63;2.13;;;8.30;99.90;;;;;;4881460;29;20716;-84
2022/03/14 06:34:17;;;;;;;4.43;1.60;;;8.40;99.90;;;;;;4930322;28;20071;-88
2022/03/14 06:36:47;;;;;;;6.43;1.65;;;;;;;;;;4996234;28;20172;-84
2022/03/14 06:39:14;;;;;;;5.75;1.60;;;8.40;99.90;;;;;;4982301;28;20085;-84
2022/03/14 06:41:40;;;;;;;9.35;3.28;;;8.50;99.90;;;;;;4981953;28;20035;-84
2022/03/14 06:44:07;;;;;;;7.85;1.67;;;;;;;;;;5010503;28;20092;-86
2022/03/14 06:46:35;;;;;;;4.20;1.60;;;8.60;99.90;;;;;;5018090;28;20118;-89
2022/03/14 06:49:01;;;;;;;5.95;1.77;;;8.70;99.90;;;;;;5015168;28;20029;-86
2022/03/14 06:51:27;;;;;;;4.97;2.00;;;8.50;99.90;;;;;;5014735;28;20018;-83
2022/03/14 06:53:53;;;;;;;4.70;1.85;;;;;;;;;;5013044;28;20033;-87
2022/03/14 06:56:20;;;;;;;5.95;1.90;;;;;;;;;;5017368;28;20032;-89
2022/03/14 06:58:46;;;;;;;8.82;2.97;;;8.60;99.90;;;;;;5018739;28;20038;-86
2022/03/14 07:01:12;;;;;;;6.55;2.45;;;9.30;99.90;;;;;;5012528;28;20022;-86
2022/03/14 07:03:39;;;;;;;9.30;2.45;;;;;;;;;;5012671;28;20084;-84
2022/03/14 07:06:04;;;;;;;11.10;2.75;;;8.60;99.90;;;;;;5012797;28;20034;-88
2022/03/14 07:08:30;;;;;;;9.60;2.67;;;8.50;99.90;;;;;;5010530;28;20124;-85
2022/03/14 07:10:56;;;;;;;7.80;2.95;;;;;;;;;;5011744;28;20128;-85
2022/03/14 07:13:22;;;;;;;7.32;3.28;;;9.70;99.90;;;;;;5015463;28;20056;-86
2022/03/14 07:15:48;;;;;;;8.00;3.33;;;8.60;99.90;;;;;;5011772;28;20026;-86
2022/03/14 07:18:15;;;;;;;11.07;3.72;;;8.70;99.90;;;;;;5005980;28;20068;-87
2022/03/14 07:20:41;;;;;;;10.70;3.80;;;8.50;99.90;;;;;;5028724;28;20026;-86
2022/03/14 07:23:07;;;;;;;8.57;3.85;;;8.70;99.90;;;;;;5011720;28;20046;-88
2022/03/14 07:25:37;;;;;;;8.02;3.85;;;8.60;99.90;;;;;;5012650;28;20045;-87
2022/03/14 07:28:06;;;;;;;8.30;4.07;;;9.40;99.90;;;;;;5012935;28;20171;-88
2022/03/14 07:30:32;;;;;;;10.23;4.07;;;8.50;99.90;;;;;;5012759;28;20037;-89
2022/03/14 07:32:58;;;;;;;8.05;3.50;;;8.50;99.90;;;;;;5011904;28;20025;-88
2022/03/14 07:35:26;;;;;;;7.68;3.60;;;8.60;99.90;;;;;;5017225;28;20097;-86
2022/03/14 07:37:52;;;;;;;9.63;3.72;;;;;;;;;;5014491;28;20382;-88
2022/03/14 07:40:18;;;;;;;8.02;3.70;;;8.70;99.90;;;;;;5014805;28;20068;-86
2022/03/14 07:42:46;;;;;;;8.52;3.22;;;8.70;99.90;;;;;;5014267;28;20032;-87
2022/03/14 07:45:14;;;;;;;8.82;3.03;;;8.70;99.90;;;;;;4999344;28;20034;-86
2022/03/14 07:47:40;;;;;;;9.13;3.50;;;9.70;99.90;;;;;;5017758;28;20039;-86
2022/03/14 07:50:08;;;;;;;10.20;3.00;;;9.10;99.90;;;;;;5018062;28;20018;-86
2022/03/14 07:52:34;;;;;;;6.07;2.80;;;9.20;99.90;;;;;;5009251;28;20080;-88
2022/03/14 07:55:00;;;;;;;9.00;3.10;;;9.20;99.90;;;;;;5012327;28;20034;-87
2022/03/14 07:57:27;;;;;;;7.43;3.22;;;;;;;;;;5007585;28;20326;-90
2022/03/14 07:59:53;;;;;;;10.82;3.95;;;9.20;99.90;;;;;;5017367;28;20382;-89
2022/03/14 08:02:20;;;;;;;8.07;3.55;;;9.30;99.90;;;;;;5012863;28;20090;-88
2022/03/14 08:04:46;;;;;;;8.93;4.18;;;9.20;99.90;;;;;;5009306;28;20030;-88
2022/03/14 08:07:13;;;;;;;12.38;4.28;;;;;;;;;;5016111;28;20041;-87
2022/03/14 08:09:39;;;;;;;13.65;4.10;;;9.10;99.90;;;;;;5012375;28;20041;-87
2022/03/14 08:12:06;;;;;;;7.55;4.25;;;;;;;;;;5011588;28;20030;-87
2022/03/14 08:14:32;;;;;;;9.10;4.68;;;9.10;99.90;;;;;;5011667;28;20125;-83
2022/03/14 08:16:58;;;;;;;11.30;5.20;;;9.00;99.90;;;;;;5015270;28;20525;-85
2022/03/14 08:19:27;;;;;;;12.52;5.72;;;9.10;99.90;;;;;;5011147;28;20117;-88
2022/03/14 08:21:56;;;;;;;10.32;5.00;;;9.10;99.90;;;;;;5006527;28;20030;-85
2022/03/14 08:24:22;;;;;;;8.23;4.25;;;9.20;99.90;;;;;;5009632;28;20022;-87
2022/03/14 08:26:48;;;;;;;13.18;4.85;;;9.30;99.90;;;;;;5014349;28;20265;-88
2022/03/14 08:29:14;;;;;;;7.47;4.20;;;9.30;99.90;;;;;;5007166;28;20123;-85
2022/03/14 08:31:41;;;;;;;11.52;6.30;;;;;;;;;;5002292;28;20030;-88
2022/03/14 08:34:07;;;;;;;10.70;6.82;;;;;;;;;;5014933;28;20029;-85
2022/03/14 08:36:35;;;;;;;10.02;5.78;;;9.30;99.90;;;;;;5004816;28;20034;-84
2022/03/14 08:39:03;;;;;;;15.13;6.35;;;9.30;99.90;;;;;;5012192;28;20438;-87
2022/03/14 08:41:30;;;;;;;9.50;5.50;;;9.40;99.90;;;;;;5008856;28;20026;-87
2022/03/14 08:43:56;;;;;;;8.93;4.70;;;9.40;99.90;;;;;;5013854;28;20026;-85
2022/03/14 08:46:22;;;;;;;11.60;5.20;;;9.50;99.90;;;;;;5001930;28;20037;-84
2022/03/14 08:48:48;;;;;;;8.38;4.97;;;9.80;99.90;;;;;;5007477;28;20387;-86
2022/03/14 08:51:13;;;;;;;8.38;5.18;;;9.40;99.90;;;;;;5004807;28;20036;-90
2022/03/14 08:53:39;;;;;;;11.82;4.82;;;9.80;99.90;;;;;;5007197;28;20033;-86
2022/03/14 08:56:05;;;;;;;10.15;4.47;;;9.20;99.90;;;;;;5008767;28;20031;-85
2022/03/14 08:58:32;;;;;;;9.93;4.82;;;9.10;99.90;;;;;;5007199;28;20026;-85
2022/03/14 09:00:59;;;;;;;10.85;4.53;;;9.10;99.90;;;;;;5002166;28;20030;-87
2022/03/14 09:03:26;;;;;;;11.45;4.57;;;9.30;99.90;;;;;;5004762;28;20514;-88
2022/03/14 09:05:56;;;;;;;8.57;4.25;;;9.40;99.90;;;;;;5001970;28;20026;-84
2022/03/14 09:08:23;;;;;;;7.88;3.75;;;;;;;;;;5004102;28;20025;-86
2022/03/14 09:11:01;;;;;;;11.63;4.45;;;;;;;;;;5006499;28;20053;-86
2022/03/14 09:13:28;;;;;;;9.60;3.80;;;9.50;99.90;;;;;;5000356;28;20030;-87
2022/03/14 09:15:54;;;;;;;9.82;4.22;;;10.80;99.90;;;;;;5010186;28;20101;-87
2022/03/14 09:18:21;;;;;;;8.55;3.70;;;9.60;99.90;;;;;;5008435;28;20475;-85
2022/03/14 09:20:50;;;;;;;15.00;4.28;;;9.70;99.90;;;;;;5001440;28;20288;-83
2022/03/14 09:23:24;;;;;;;9.70;3.90;;;9.80;99.90;;;;;;5009647;28;20084;-87
2022/03/14 09:25:51;;;;;;;11.82;4.95;;;9.90;99.90;;;;;;5004371;28;20022;-87
2022/03/14 09:28:17;;;;;;;11.88;5.32;;;9.90;99.90;;;;;;5001281;28;20030;-82
2022/03/14 09:30:44;;;;;;;10.18;5.15;;;9.80;99.90;;;;;;5006204;28;20032;-83
2022/03/14 09:33:09;;;;;;;12.88;5.75;;;9.80;99.90;;;;;;5005741;28;20066;-86
2022/03/14 09:35:36;;;;;;;15.20;6.65;;;;;;;;;;5007065;28;20030;-81
2022/03/14 09:38:02;;;;;;;15.40;7.47;;;9.70;99.90;;;;;;5000761;28;20022;-86
2022/03/14 09:40:31;;;;;;;11.90;6.13;;;9.70;99.90;;;;;;5004055;28;20392;-85
2022/03/14 09:42:59;;;;;;;15.10;6.40;;;;;;;;;;5009613;28;20022;-86
2022/03/14 09:45:26;;;;;;;14.52;6.22;;;10.00;99.90;;;;;;5007284;28;20117;-86
2022/03/14 09:48:03;;;;;;;7.95;5.03;;;10.20;99.90;;;;;;5003360;28;20398;-83
2022/03/14 09:50:39;;;;;;;11.93;5.43;;;10.20;99.90;;;;;;5008195;28;20356;-86
2022/03/14 09:53:08;;;;;;;14.38;6.43;;;10.30;99.90;;;;;;5001693;28;20068;-88
2022/03/14 09:55:43;;;;;;;10.32;6.53;;;10.50;99.90;;;;;;5002276;28;20038;-84
2022/03/14 09:58:20;;;;;;;11.80;6.80;;;10.50;99.90;;;;;;5008842;28;20030;-86
2022/03/14 10:00:47;;;;;;;13.30;6.30;;;10.40;99.90;;;;;;5008583;28;20044;-84
2022/03/14 10:03:14;;;;;;;10.10;5.30;;;10.40;99.90;;;;;;5006224;28;20502;-86
2022/03/14 10:05:41;;;;;;;10.93;5.03;;;10.60;99.90;;;;;;5005366;28;20549;-86
2022/03/14 10:08:07;;;;;;;8.13;4.50;;;10.80;99.90;;;;;;5007141;28;20048;-84
2022/03/14 10:10:37;;;;;;;12.30;5.32;;;11.20;99.90;;;;;;5008729;28;20124;-85
2022/03/14 10:13:03;;;;;;;12.70;5.30;;;;;;;;;;5005099;28;20026;-84
2022/03/14 10:15:31;;;;;;;9.02;4.82;;;11.20;99.90;;;;;;5001418;28;20084;-86
2022/03/14 10:17:57;;;;;;;9.98;5.22;;;11.30;99.90;;;;;;5009093;28;20118;-85
2022/03/14 10:20:25;;;;;;;12.23;5.80;;;11.30;99.90;;;;;;5002660;28;20541;-82
2022/03/14 10:22:51;;;;;;;9.85;5.38;;;11.20;99.90;;;;;;5001686;28;20029;-85
2022/03/14 10:25:21;;;;;;;11.15;6.20;;;11.20;99.90;;;;;;5012483;28;20549;-86
2022/03/14 10:27:56;;;;;;;11.32;6.55;;;11.30;99.90;;;;;;5015653;28;20104;-84
2022/03/14 10:30:29;;;;;;;9.77;4.65;;;11.40;99.90;;;;;;5009194;28;20372;-82
2022/03/14 10:33:14;;;;;;;8.45;4.43;;;11.60;99.90;;;;;;5012278;28;20023;-84
2022/03/14 10:35:43;;;;;;;8.38;4.38;;;11.90;99.90;;;;;;5028075;28;20022;-84
2022/03/14 10:38:11;;;;;;;8.18;4.10;;;12.30;99.90;;;;;;5006959;28;20029;-83
2022/03/14 10:40:40;;;;;;;5.78;3.20;;;12.40;99.90;;;;;;5007743;28;20042;-87
2022/03/14 10:43:21;;;;;;;11.00;3.75;;;12.00;99.90;;;;;;5010287;28;20086;-84
2022/03/14 10:45:48;;;;;;;9.45;3.08;;;;;;;;;;5021729;28;20022;-84
2022/03/14 10:48:14;;;;;;;10.75;3.28;;;;;;;;;;5022947;28;20477;-81
2022/03/14 10:50:41;;;;;;;7.03;2.78;;;12.20;99.90;;;;;;5009716;28;20021;-84
2022/03/14 10:53:36;;;;;;;7.03;3.10;;;12.30;99.90;;;;;;5011766;28;20042;-83
2022/03/14 10:56:03;;;;;;;6.43;2.38;;;12.50;99.90;;;;;;5000013;28;20053;-85
2022/03/14 10:58:33;;;;;;;7.30;2.80;;;12.70;99.90;;;;;;5004138;28;20018;-83
2022/03/14 11:01:02;;;;;;;3.80;1.85;;;13.00;99.90;;;;;;5009397;28;20022;-84
2022/03/14 11:03:30;;;;;;;6.07;2.42;;;13.00;99.90;;;;;;5004896;28;20057;-89
2022/03/14 11:06:01;;;;;;;6.70;2.45;;;13.40;99.90;;;;;;5016708;28;20094;-85
2022/03/14 11:08:28;;;;;;;5.07;2.08;;;13.40;99.90;;;;;;5009856;28;20063;-88
2022/03/14 11:10:55;;;;;;;7.38;1.80;;;;;;;;;;5010291;28;20495;-87
2022/03/14 11:13:21;;;;;;;5.25;1.20;;;13.30;99.90;;;;;;5008480;28;20032;-87
2022/03/14 11:15:47;;;;;;;5.85;1.70;;;13.10;99.90;;;;;;5009972;28;20068;-87
2022/03/14 11:18:13;;;;;;;5.50;1.85;;;12.90;99.90;;;;;;5003587;28;20470;-87
2022/03/14 11:20:39;;;;;;;5.43;1.88;;;12.80;99.90;;;;;;5002066;28;20061;-88
2022/03/14 11:23:06;;;;;;;5.22;1.55;;;12.80;99.90;;;;;;5006076;28;20026;-84
2022/03/14 11:25:33;;;;;;;5.70;1.20;;;;;;;;;;5005049;28;20029;-88
2022/03/14 11:28:01;;;;;;;6.70;1.10;;;12.80;99.90;;;;;;5007332;28;20494;-83
2022/03/14 11:30:27;;;;;;;4.38;1.20;;;12.70;99.90;;;;;;5038633;28;20057;-84
2022/03/14 11:32:53;;;;;;;4.57;1.15;;;12.80;99.90;;;;;;5005419;28;20394;-85
2022/03/14 11:35:20;;;;;;;4.75;1.15;;;;;;;;;;5012696;28;20028;-89
2022/03/14 11:37:46;;;;;;;5.72;1.40;;;12.80;99.90;;;;;;5005832;28;21029;-86
2022/03/14 11:40:14;;;;;;;5.68;1.35;;;12.80;99.90;;;;;;5004060;28;21541;-88
2022/03/14 11:42:40;;;;;;;3.42;1.33;;;12.90;99.90;;;;;;5006487;28;20068;-85
2022/03/14 11:45:07;;;;;;;3.15;1.00;;;13.10;97.90;;;;;;5005129;28;20034;-87
2022/03/14 11:47:33;;;;;;;6.90;1.50;;;13.10;98.10;;;;;;4999216;28;20045;-88
2022/03/14 11:50:01;;;;;;;3.45;1.10;;;13.00;98.90;;;;;;4996183;28;20398;-88
2022/03/14 11:52:43;;;;;;;3.80;1.30;;;12.80;99.30;;;;;;5005259;28;20487;-86
2022/03/14 11:55:19;;;;;;;5.00;2.28;;;12.70;98.90;;;;;;5003518;28;20036;-87
2022/03/14 11:57:45;;;;;;;10.95;3.67;;;12.70;99.40;;;;;;5004006;28;20052;-89
2022/03/14 12:00:38;;;;;;;12.57;5.03;;;12.60;99.90;;;;;;5004235;28;20120;-89
2022/03/14 12:03:06;;;;;;;6.03;2.35;;;12.50;99.90;;;;;;5005543;28;20402;-85
2022/03/14 12:05:38;;;;;;;5.93;2.40;;;;;;;;;;5009252;28;20026;-84
2022/03/14 12:08:10;;;;;;;6.70;2.05;;;12.20;99.90;;;;;;4998917;28;20570;-86
2022/03/14 12:10:36;;;;;;;5.10;1.73;;;12.10;99.90;;;;;;5004703;28;20030;-86
2022/03/14 12:13:02;;;;;;;7.28;1.95;;;12.20;99.90;;;;;;5007169;28;20053;-88
2022/03/14 12:15:54;;;;;;;4.00;1.48;;;12.20;99.90;;;;;;5004576;28;20029;-87
2022/03/14 12:18:23;;;;;;;2.35;1.10;;;12.40;99.80;;;;;;5005302;28;20029;-88
2022/03/14 12:21:02;;;;;;;5.38;1.42;;;12.40;99.90;;;;;;5005058;28;20023;-87
2022/03/14 12:23:33;;;;;;;3.50;1.30;;;12.60;99.50;;;;;;5003146;28;20025;-85
2022/03/14 12:26:18;;;;;;;6.35;2.15;;;12.70;98.40;;;;;;5002373;28;20041;-85
2022/03/14 12:28:44;;;;;;;6.47;1.40;;;12.80;98.40;;;;;;5040421;28;20539;-87
2022/03/14 12:31:12;;;;;;;5.47;1.75;;;12.60;99.10;;;;;;5004805;28;20025;-88
2022/03/14 12:33:43;;;;;;;4.72;1.30;;;12.70;97.70;;;;;;5051055;22;20033;-83
2022/03/14 12:36:24;;;;;;;6.07;1.67;;;12.80;97.10;;;;;;5037459;28;20553;-84
2022/03/14 12:39:18;;;;;;;;;;;12.90;96.80;;;;;;5042698;28;20025;-80
2022/03/14 12:41:44;;;;;;;2.20;1.00;;;13.20;96.30;;;;;;5039591;28;19908;-85
2022/03/14 12:44:21;;;;;;;4.05;1.30;;;13.30;96.60;;;;;;5044531;28;20493;-83
2022/03/14 12:46:49;;;;;;;3.13;1.17;;;13.60;95.10;;;;;;5036349;28;20507;-83
2022/03/14 12:49:40;;;;;;;4.30;1.00;;;13.70;94.00;;;;;;5032978;28;20409;-82
2022/03/14 12:52:09;;;;;;;;;;;13.60;94.50;;;;;;5025469;28;20043;-80
2022/03/14 12:54:35;;;;;;;3.88;0.93;;;13.70;94.00;;;;;;5033400;28;19917;-80
2022/03/14 12:57:01;;;;;;;4.25;1.58;;;13.90;93.50;;;;;;5025131;28;20041;-85
2022/03/14 12:59:27;;;;;;;4.07;1.48;;;13.90;93.10;;;;;;5027920;28;20128;-82
2022/03/14 13:01:53;;;;;;;3.92;1.05;;;14.00;91.60;;;;;;5032806;28;20033;-83
2022/03/14 13:04:22;;;;;;;2.60;1.05;;;14.00;91.90;;;;;;5029915;28;20051;-84
2022/03/14 13:06:50;;;;;;;3.55;1.15;;;14.00;90.90;;;;;;5031915;28;20035;-79
2022/03/14 13:09:30;;;;;;;2.58;0.90;;;14.20;90.50;;;;;;5033143;28;20127;-83
2022/03/14 13:11:58;;;;;;;3.80;0.98;;;14.20;90.30;;;;;;5023497;28;20498;-85
2022/03/14 13:14:24;;;;;;;5.22;1.00;;;14.10;89.70;;;;;;5025442;28;20033;-81
2022/03/14 13:16:55;;;;;;;6.32;1.48;;;13.80;90.10;;;;;;5040367;28;20025;-81
2022/03/14 13:19:25;;;;;;;3.70;1.23;;;13.80;90.80;;;;;;5027709;28;20052;-84
2022/03/14 13:21:51;;;;;;;3.60;1.52;;;13.70;90.90;;;;;;5032930;28;20025;-84
2022/03/14 13:24:17;;;;;;;6.30;2.05;;;13.60;91.60;;;;;;5029316;28;20028;-80